createdAt,value
2023-03-17T00:01:54.397Z,0.95
2023-03-17T00:04:26.493Z,1.43
2023-03-17T00:06:54.541Z,0.90
2023-03-17T00:09:22.272Z,0.85
2023-03-17T00:11:52.046Z,0.80
2023-03-17T00:14:19.848Z,1.05
2023-03-17T00:16:50.170Z,1.00
2023-03-17T00:19:39.538Z,0.73
2023-03-17T00:22:10.693Z,0.75
2023-03-17T00:24:37.490Z,0.75
2023-03-17T00:27:13.348Z,1.08
2023-03-17T00:29:40.547Z,0.63
2023-03-17T00:32:27.888Z,0.70
2023-03-17T00:34:56.755Z,0.80
2023-03-17T00:37:23.309Z,0.70
2023-03-17T00:39:50.134Z,0.75
2023-03-17T00:42:17.570Z,0.40
2023-03-17T00:44:44.649Z,0.80
2023-03-17T00:47:11.949Z,0.88
2023-03-17T00:49:38.607Z,0.73
2023-03-17T00:52:06.042Z,0.60
2023-03-17T00:54:37.168Z,0.70
2023-03-17T00:57:04.249Z,0.60
2023-03-17T00:59:40.336Z,0.80
2023-03-17T01:02:07.193Z,0.65
2023-03-17T01:04:34.514Z,0.75
2023-03-17T01:07:01.196Z,0.70
2023-03-17T01:09:28.628Z,0.60
2023-03-17T01:11:55.884Z,0.60
2023-03-17T01:14:23.458Z,1.08
2023-03-17T01:16:50.589Z,0.85
2023-03-17T01:19:17.214Z,0.60
2023-03-17T01:21:46.521Z,0.70
2023-03-17T01:24:13.763Z,0.70
2023-03-17T01:26:42.823Z,0.60
2023-03-17T01:29:09.546Z,0.80
2023-03-17T01:31:36.441Z,0.60
2023-03-17T01:34:04.380Z,0.80
2023-03-17T01:36:35.857Z,0.73
2023-03-17T01:39:07.325Z,0.60
2023-03-17T01:41:35.277Z,0.90
2023-03-17T01:44:02.081Z,0.60
2023-03-17T01:46:39.123Z,0.80
2023-03-17T01:49:23.891Z,0.65
2023-03-17T01:52:05.115Z,0.75
2023-03-17T01:54:37.575Z,0.90
2023-03-17T01:57:16.148Z,0.70
2023-03-17T01:59:50.264Z,0.80
2023-03-17T02:02:24.717Z,1.00
2023-03-17T02:04:52.323Z,1.20
2023-03-17T02:07:20.692Z,1.20
2023-03-17T02:09:47.935Z,1.27
2023-03-17T02:12:16.958Z,1.17
2023-03-17T02:14:46.795Z,1.20
2023-03-17T02:17:13.494Z,1.40
2023-03-17T02:19:40.211Z,1.60
2023-03-17T02:22:06.800Z,1.60
2023-03-17T02:24:40.551Z,1.83
2023-03-17T02:27:13.512Z,1.70
2023-03-17T02:29:41.999Z,1.40
2023-03-17T02:32:10.246Z,1.52
2023-03-17T02:34:37.390Z,1.77
2023-03-17T02:37:07.783Z,1.50
2023-03-17T02:39:37.358Z,1.88
2023-03-17T02:42:05.771Z,2.00
2023-03-17T02:44:33.027Z,1.85
2023-03-17T02:47:03.228Z,2.13
2023-03-17T02:49:31.771Z,1.60
2023-03-17T02:51:58.362Z,1.77
2023-03-17T02:54:27.347Z,2.45
2023-03-17T02:56:54.059Z,2.45
2023-03-17T02:59:20.802Z,2.47
2023-03-17T03:01:48.617Z,2.53
2023-03-17T03:04:19.150Z,2.25
2023-03-17T03:06:47.739Z,2.03
2023-03-17T03:09:15.208Z,2.22
2023-03-17T03:11:42.694Z,2.70
2023-03-17T03:14:10.469Z,2.15
2023-03-17T03:16:38.063Z,2.45
2023-03-17T03:19:07.977Z,2.38
2023-03-17T03:21:34.625Z,2.20
2023-03-17T03:24:01.269Z,2.30
2023-03-17T03:26:30.099Z,2.67
2023-03-17T03:29:00.085Z,2.40
2023-03-17T03:31:27.699Z,2.08
2023-03-17T03:33:56.878Z,2.15
2023-03-17T03:36:26.905Z,2.77
2023-03-17T03:38:53.736Z,1.77
2023-03-17T03:41:20.296Z,2.58
2023-03-17T03:43:49.343Z,1.88
2023-03-17T03:46:16.703Z,2.13
2023-03-17T03:48:45.634Z,2.40
2023-03-17T03:51:12.196Z,2.30
2023-03-17T03:53:41.167Z,2.17
2023-03-17T03:56:07.902Z,2.45
2023-03-17T03:58:34.512Z,2.25
2023-03-17T04:01:05.037Z,2.20
2023-03-17T04:03:34.285Z,2.10
2023-03-17T04:06:01.082Z,2.22
2023-03-17T04:08:27.680Z,2.20
2023-03-17T04:10:54.260Z,2.05
2023-03-17T04:13:23.087Z,2.00
2023-03-17T04:15:52.092Z,2.28
2023-03-17T04:18:18.632Z,2.72
2023-03-17T04:20:47.752Z,2.30
2023-03-17T04:23:14.344Z,2.40
2023-03-17T04:25:43.456Z,2.10
2023-03-17T04:28:10.931Z,2.47
2023-03-17T04:30:37.718Z,2.00
2023-03-17T04:33:04.285Z,2.05
2023-03-17T04:35:31.454Z,2.25
2023-03-17T04:37:58.028Z,2.20
2023-03-17T04:40:24.633Z,1.92
2023-03-17T04:42:51.209Z,2.17
2023-03-17T04:45:17.815Z,2.30
2023-03-17T04:47:47.231Z,2.05
2023-03-17T04:50:14.770Z,2.00
2023-03-17T04:52:41.379Z,2.30
2023-03-17T04:55:08.516Z,2.08
2023-03-17T04:57:36.151Z,2.22
2023-03-17T05:00:05.124Z,2.10
2023-03-17T05:02:31.813Z,2.30
2023-03-17T05:04:58.384Z,1.73
2023-03-17T05:07:30.015Z,2.45
2023-03-17T05:09:57.991Z,2.20
2023-03-17T05:12:24.531Z,2.90
2023-03-17T05:14:51.102Z,2.30
2023-03-17T05:17:17.660Z,2.15
2023-03-17T05:19:44.230Z,2.55
2023-03-17T05:22:15.796Z,2.28
2023-03-17T05:24:42.590Z,2.83
2023-03-17T05:27:09.206Z,2.40
2023-03-17T05:29:35.818Z,2.40
2023-03-17T05:32:02.398Z,2.50
2023-03-17T05:34:29.002Z,2.72
2023-03-17T05:36:55.585Z,2.75
2023-03-17T05:39:22.137Z,2.60
2023-03-17T05:41:48.761Z,2.47
2023-03-17T05:44:17.567Z,2.50
2023-03-17T05:46:47.608Z,2.35
2023-03-17T05:49:16.413Z,2.63
2023-03-17T05:51:45.458Z,2.50
2023-03-17T05:54:14.658Z,2.20
2023-03-17T05:56:43.012Z,2.10
2023-03-17T05:59:10.518Z,2.35
2023-03-17T06:01:37.160Z,2.90
2023-03-17T06:04:04.407Z,2.13
2023-03-17T06:06:33.988Z,2.40
2023-03-17T06:09:01.180Z,2.30
2023-03-17T06:11:29.963Z,2.60
2023-03-17T06:13:56.532Z,2.65
2023-03-17T06:16:23.195Z,2.60
2023-03-17T06:18:49.873Z,2.88
2023-03-17T06:21:17.006Z,2.75
2023-03-17T06:23:46.021Z,2.65
2023-03-17T06:26:14.789Z,2.53
2023-03-17T06:28:41.359Z,3.13
2023-03-17T06:31:10.228Z,2.90
2023-03-17T06:33:39.036Z,3.15
2023-03-17T06:36:08.911Z,3.47
2023-03-17T06:38:35.635Z,3.80
2023-03-17T06:41:04.437Z,3.23
2023-03-17T06:43:31.964Z,3.25
2023-03-17T06:45:58.613Z,3.50
2023-03-17T06:48:25.237Z,3.40
2023-03-17T06:50:55.040Z,3.58
2023-03-17T06:53:23.876Z,3.50
2023-03-17T06:55:50.506Z,3.58
2023-03-17T06:58:17.252Z,3.95
2023-03-17T07:00:48.951Z,4.00
2023-03-17T07:03:18.207Z,3.88
2023-03-17T07:05:47.737Z,4.10
2023-03-17T07:08:14.304Z,4.20
2023-03-17T07:10:44.187Z,3.35
2023-03-17T07:13:13.801Z,3.90
2023-03-17T07:15:40.970Z,3.40
2023-03-17T07:18:07.841Z,3.90
2023-03-17T07:20:34.503Z,3.30
2023-03-17T07:23:01.358Z,3.63
2023-03-17T07:25:30.834Z,3.47
2023-03-17T07:27:58.602Z,3.70
2023-03-17T07:30:27.793Z,3.83
2023-03-17T07:32:55.305Z,3.63
2023-03-17T07:35:24.270Z,3.00
2023-03-17T07:37:50.880Z,3.63
2023-03-17T07:40:18.639Z,2.65
2023-03-17T07:42:45.500Z,2.50
2023-03-17T07:45:12.734Z,3.13
2023-03-17T07:47:42.046Z,2.90
2023-03-17T07:50:09.803Z,2.90
2023-03-17T07:52:38.824Z,2.78
2023-03-17T07:55:10.637Z,2.47
2023-03-17T07:57:39.499Z,2.22
2023-03-17T08:00:10.359Z,2.33
2023-03-17T08:02:39.887Z,2.60
2023-03-17T08:05:10.487Z,2.28
2023-03-17T08:07:40.611Z,2.03
2023-03-17T08:10:12.966Z,1.85
2023-03-17T08:12:40.782Z,2.33
2023-03-17T08:15:07.838Z,2.40
2023-03-17T08:17:35.409Z,2.97
2023-03-17T08:20:05.301Z,2.63
2023-03-17T08:22:32.243Z,2.75
2023-03-17T08:24:58.883Z,2.60
2023-03-17T08:27:33.540Z,1.90
2023-03-17T08:30:00.430Z,2.88
2023-03-17T08:32:27.448Z,2.40
2023-03-17T08:34:56.931Z,2.92
2023-03-17T08:37:24.738Z,3.03
2023-03-17T08:39:51.311Z,3.88
2023-03-17T08:42:20.410Z,5.60
2023-03-17T08:44:47.200Z,5.97
2023-03-17T08:47:13.777Z,5.07
2023-03-17T08:49:41.112Z,4.32
2023-03-17T08:52:08.180Z,2.78
2023-03-17T08:54:35.884Z,2.80
2023-03-17T08:57:04.118Z,2.40
2023-03-17T08:59:33.645Z,2.45
2023-03-17T09:02:00.677Z,2.05
2023-03-17T09:04:28.057Z,2.10
2023-03-17T09:07:03.436Z,2.03
2023-03-17T09:09:36.817Z,3.17
2023-03-17T09:12:06.337Z,4.53
2023-03-17T09:14:42.891Z,4.80
2023-03-17T09:17:11.254Z,4.07
2023-03-17T09:19:38.836Z,7.90
2023-03-17T09:22:07.884Z,17.80
2023-03-17T09:24:34.454Z,19.00
2023-03-17T09:27:01.449Z,18.77
2023-03-17T09:29:28.123Z,13.77
2023-03-17T09:31:57.076Z,12.68
2023-03-17T09:34:25.224Z,10.83
2023-03-17T09:36:53.752Z,10.40
2023-03-17T09:39:23.126Z,9.88
2023-03-17T09:42:02.915Z,9.85
2023-03-17T09:44:35.983Z,10.30
2023-03-17T09:47:21.388Z,9.53
2023-03-17T09:49:54.964Z,9.90
2023-03-17T09:52:34.483Z,10.48
2023-03-17T09:55:03.732Z,8.98
2023-03-17T09:57:34.064Z,9.63
2023-03-17T10:00:06.515Z,8.93
2023-03-17T10:02:39.978Z,7.72
2023-03-17T10:05:28.956Z,8.18
2023-03-17T10:08:31.150Z,6.82
2023-03-17T10:11:16.549Z,8.02
2023-03-17T10:13:46.106Z,7.13
2023-03-17T10:16:20.822Z,7.07
2023-03-17T10:18:52.078Z,6.78
2023-03-17T10:21:24.339Z,7.43
2023-03-17T10:23:51.182Z,5.72
2023-03-17T10:26:30.090Z,7.00
2023-03-17T10:29:03.877Z,6.47
2023-03-17T10:31:33.708Z,9.30
2023-03-17T10:34:13.785Z,10.68
2023-03-17T10:36:44.533Z,9.05
2023-03-17T10:39:16.983Z,7.80
2023-03-17T10:42:29.409Z,8.13
2023-03-17T10:45:02.208Z,7.57
2023-03-17T10:47:38.321Z,7.93
2023-03-17T10:50:33.562Z,7.75
2023-03-17T10:53:06.099Z,7.33
2023-03-17T10:55:50.411Z,7.40
2023-03-17T10:58:21.914Z,7.60
2023-03-17T11:01:03.832Z,6.70
2023-03-17T11:03:35.958Z,5.90
2023-03-17T11:06:09.326Z,6.17
2023-03-17T11:08:41.763Z,5.93
2023-03-17T11:11:22.474Z,5.72
2023-03-17T11:13:49.245Z,4.78
2023-03-17T11:16:29.294Z,4.68
2023-03-17T11:19:00.852Z,4.73
2023-03-17T11:21:46.862Z,4.10
2023-03-17T11:24:19.610Z,4.50
2023-03-17T11:26:56.520Z,4.95
2023-03-17T11:29:32.665Z,4.47
2023-03-17T11:32:05.442Z,4.20
2023-03-17T11:34:34.834Z,4.20
2023-03-17T11:37:13.479Z,4.05
2023-03-17T11:40:14.610Z,3.80
2023-03-17T11:42:59.754Z,3.95
2023-03-17T11:45:30.724Z,4.07
2023-03-17T11:48:42.467Z,3.70
2023-03-17T11:51:33.338Z,3.33
2023-03-17T11:54:12.501Z,3.50
2023-03-17T11:56:44.113Z,3.28
2023-03-17T11:59:46.982Z,3.13
2023-03-17T12:02:29.978Z,3.17
2023-03-17T12:05:02.571Z,3.03
2023-03-17T12:07:37.637Z,3.78
2023-03-17T12:10:25.770Z,3.25
2023-03-17T12:13:07.132Z,3.07
2023-03-17T12:15:41.875Z,3.65
2023-03-17T12:18:27.156Z,2.92
2023-03-17T12:21:09.630Z,3.03
2023-03-17T12:23:42.286Z,2.60
2023-03-17T12:26:12.448Z,2.90
2023-03-17T12:28:57.743Z,2.90
2023-03-17T12:31:33.500Z,2.85
2023-03-17T12:34:18.792Z,2.60
2023-03-17T12:36:45.539Z,2.83
2023-03-17T12:39:18.192Z,3.60
2023-03-17T12:42:23.695Z,2.97
2023-03-17T12:44:58.217Z,3.17
2023-03-17T12:47:46.953Z,3.28
2023-03-17T12:50:31.620Z,2.60
2023-03-17T12:53:19.713Z,2.83
2023-03-17T12:55:51.801Z,2.40
2023-03-17T12:58:30.309Z,2.42
2023-03-17T13:01:07.172Z,2.63
2023-03-17T13:03:45.614Z,2.67
2023-03-17T13:06:19.819Z,2.43
2023-03-17T13:08:51.717Z,2.17
2023-03-17T13:11:19.757Z,2.55
2023-03-17T13:13:49.488Z,2.50
2023-03-17T13:16:48.817Z,2.55
2023-03-17T13:19:24.299Z,2.23
2023-03-17T13:22:03.387Z,2.17
2023-03-17T13:24:52.319Z,2.30
2023-03-17T13:27:34.031Z,2.28
2023-03-17T13:30:25.794Z,2.35
2023-03-17T13:33:11.238Z,2.30
2023-03-17T13:36:00.578Z,2.35
2023-03-17T13:39:05.146Z,2.17
2023-03-17T13:41:50.370Z,2.13
2023-03-17T13:45:01.229Z,2.63
2023-03-17T13:47:35.569Z,1.93
2023-03-17T13:50:12.700Z,2.03
2023-03-17T13:52:41.906Z,1.80
2023-03-17T13:55:17.784Z,1.92
2023-03-17T13:58:11.819Z,1.77
2023-03-17T14:00:41.582Z,1.90
2023-03-17T14:03:20.105Z,2.05
2023-03-17T14:05:50.223Z,2.17
2023-03-17T14:08:24.118Z,1.48
2023-03-17T14:10:55.530Z,1.70
2023-03-17T14:13:25.976Z,1.77
2023-03-17T14:16:21.338Z,1.88
2023-03-17T14:18:59.038Z,1.98
2023-03-17T14:21:31.237Z,1.75
2023-03-17T14:24:04.303Z,2.03
2023-03-17T14:26:32.349Z,1.60
2023-03-17T14:29:00.715Z,1.40
2023-03-17T14:31:30.594Z,1.98
2023-03-17T14:34:03.751Z,1.92
2023-03-17T14:36:36.404Z,2.22
2023-03-17T14:39:03.074Z,1.40
2023-03-17T14:41:31.196Z,1.30
2023-03-17T14:44:00.099Z,1.67
2023-03-17T14:46:38.620Z,1.58
2023-03-17T14:49:25.711Z,1.60
2023-03-17T14:51:58.405Z,1.43
2023-03-17T14:54:28.729Z,1.50
2023-03-17T14:57:02.335Z,1.50
2023-03-17T14:59:37.192Z,1.63
2023-03-17T15:02:29.190Z,1.40
2023-03-17T15:05:23.100Z,1.40
2023-03-17T15:07:53.025Z,1.15
2023-03-17T15:10:22.865Z,1.08
2023-03-17T15:12:49.578Z,1.40
2023-03-17T15:15:26.123Z,1.23
2023-03-17T15:17:58.928Z,1.13
2023-03-17T15:20:31.067Z,1.60
2023-03-17T15:23:19.411Z,1.38
2023-03-17T15:25:55.989Z,1.48
2023-03-17T15:28:28.371Z,1.50
2023-03-17T15:31:10.215Z,1.00
2023-03-17T15:33:39.071Z,1.50
2023-03-17T15:36:25.517Z,1.25
2023-03-17T15:39:00.044Z,1.13
2023-03-17T15:41:31.495Z,1.30
2023-03-17T15:43:58.072Z,1.17
2023-03-17T15:46:27.713Z,1.20
2023-03-17T15:48:54.896Z,1.40
2023-03-17T15:51:21.703Z,1.05
2023-03-17T15:53:48.337Z,1.63
2023-03-17T15:56:17.443Z,1.10
2023-03-17T15:58:44.270Z,1.58
2023-03-17T16:01:12.649Z,0.90
2023-03-17T16:03:42.583Z,1.45
2023-03-17T16:06:22.243Z,1.05
2023-03-17T16:08:50.494Z,1.17
2023-03-17T16:11:32.485Z,1.00
2023-03-17T16:13:59.794Z,1.20
2023-03-17T16:16:38.583Z,1.10
2023-03-17T16:19:09.188Z,1.30
2023-03-17T16:21:37.202Z,1.13
2023-03-17T16:24:03.935Z,1.33
2023-03-17T16:26:33.071Z,1.33
2023-03-17T16:28:59.670Z,0.90
2023-03-17T16:31:31.913Z,1.45
2023-03-17T16:33:58.606Z,0.90
2023-03-17T16:36:27.608Z,1.02
2023-03-17T16:38:54.238Z,1.00
2023-03-17T16:41:24.077Z,1.10
2023-03-17T16:43:59.476Z,1.48
2023-03-17T16:46:28.026Z,1.33
2023-03-17T16:48:56.235Z,1.02
2023-03-17T16:51:24.917Z,1.25
2023-03-17T16:53:51.770Z,1.00
2023-03-17T16:56:21.551Z,1.10
2023-03-17T16:58:48.956Z,1.00
2023-03-17T17:01:19.758Z,1.30
2023-03-17T17:03:47.345Z,1.27
2023-03-17T17:06:14.612Z,1.50
2023-03-17T17:08:45.768Z,1.30
2023-03-17T17:11:14.664Z,1.60
2023-03-17T17:13:45.470Z,1.63
2023-03-17T17:16:22.498Z,1.38
2023-03-17T17:18:49.332Z,1.90
2023-03-17T17:21:20.423Z,2.90
2023-03-17T17:23:47.242Z,8.10
2023-03-17T17:26:13.897Z,16.05
2023-03-17T17:28:42.852Z,21.08
2023-03-17T17:31:10.487Z,18.80
2023-03-17T17:33:37.783Z,18.10
2023-03-17T17:36:07.548Z,15.20
2023-03-17T17:38:34.213Z,13.55
2023-03-17T17:41:05.880Z,13.68
2023-03-17T17:43:32.772Z,11.73
2023-03-17T17:46:04.107Z,11.55
2023-03-17T17:48:30.691Z,10.13
2023-03-17T17:50:57.871Z,10.88
2023-03-17T17:53:24.744Z,9.38
2023-03-17T17:55:51.982Z,9.30
2023-03-17T17:58:22.523Z,9.77
2023-03-17T18:00:49.463Z,181.13
2023-03-17T18:03:22.351Z,206.70
2023-03-17T18:05:52.014Z,175.73
2023-03-17T18:08:19.041Z,119.50
2023-03-17T18:10:46.027Z,186.35
2023-03-17T18:13:12.626Z,165.03
2023-03-17T18:15:39.181Z,137.38
2023-03-17T18:18:06.824Z,103.65
2023-03-17T18:20:34.228Z,82.00
2023-03-17T18:23:03.808Z,48.72
2023-03-17T18:25:30.480Z,29.17
2023-03-17T18:27:57.294Z,23.17
2023-03-17T18:30:26.708Z,282.13
2023-03-17T18:32:58.412Z,128.63
2023-03-17T18:35:27.916Z,73.45
2023-03-17T18:37:57.426Z,47.00
2023-03-17T18:40:27.424Z,42.83
2023-03-17T18:42:54.031Z,37.67
2023-03-17T18:45:20.881Z,28.88
2023-03-17T18:47:47.474Z,21.48
2023-03-17T18:50:21.839Z,16.93
2023-03-17T18:52:48.765Z,14.18
2023-03-17T18:55:15.622Z,14.57
2023-03-17T18:57:46.430Z,13.13
2023-03-17T19:00:20.171Z,12.20
2023-03-17T19:02:47.162Z,10.50
2023-03-17T19:05:15.402Z,10.60
2023-03-17T19:07:44.345Z,8.20
2023-03-17T19:10:12.326Z,8.40
2023-03-17T19:12:38.967Z,8.50
2023-03-17T19:15:07.905Z,8.00
2023-03-17T19:17:35.228Z,8.10
2023-03-17T19:20:01.870Z,7.88
2023-03-17T19:22:31.406Z,7.53
2023-03-17T19:24:58.431Z,9.18
2023-03-17T19:27:27.494Z,8.17
2023-03-17T19:29:56.583Z,7.65
2023-03-17T19:32:23.167Z,8.25
2023-03-17T19:34:49.786Z,8.00
2023-03-17T19:37:16.458Z,8.88
2023-03-17T19:39:45.129Z,8.33
2023-03-17T19:42:14.949Z,8.07
2023-03-17T19:44:41.577Z,8.15
2023-03-17T19:47:08.569Z,7.25
2023-03-17T19:49:37.439Z,7.80
2023-03-17T19:52:09.641Z,7.30
2023-03-17T19:54:44.814Z,7.05
2023-03-17T19:57:16.878Z,7.05
2023-03-17T19:59:43.460Z,7.00
2023-03-17T20:02:16.651Z,7.10
2023-03-17T20:04:43.690Z,7.40
2023-03-17T20:07:11.440Z,7.32
2023-03-17T20:09:39.374Z,7.25
2023-03-17T20:12:06.364Z,7.50
2023-03-17T20:14:32.953Z,7.10
2023-03-17T20:16:59.804Z,7.13
2023-03-17T20:19:29.316Z,7.32
2023-03-17T20:21:58.452Z,7.63
2023-03-17T20:24:29.197Z,7.10
2023-03-17T20:26:59.551Z,7.00
2023-03-17T20:29:26.408Z,7.40
2023-03-17T20:31:56.001Z,6.72
2023-03-17T20:34:22.895Z,6.90
2023-03-17T20:36:49.818Z,6.45
2023-03-17T20:39:19.977Z,7.53
2023-03-17T20:41:51.628Z,6.40
2023-03-17T20:44:18.984Z,6.60
2023-03-17T20:46:46.313Z,6.70
2023-03-17T20:49:17.306Z,7.03
2023-03-17T20:51:44.094Z,6.05
2023-03-17T20:54:13.700Z,4.90
2023-03-17T20:56:40.327Z,7.15
2023-03-17T20:59:09.536Z,7.30
2023-03-17T21:01:37.655Z,7.05
2023-03-17T21:04:09.878Z,6.95
2023-03-17T21:06:37.339Z,6.70
2023-03-17T21:09:05.052Z,7.05
2023-03-17T21:11:36.666Z,7.45
2023-03-17T21:14:09.242Z,6.78
2023-03-17T21:16:38.784Z,6.78
2023-03-17T21:19:09.681Z,9.27
2023-03-17T21:21:38.785Z,9.30
2023-03-17T21:24:09.485Z,8.25
2023-03-17T21:26:36.163Z,7.15
2023-03-17T21:29:02.886Z,8.20
2023-03-17T21:31:29.521Z,6.37
2023-03-17T21:33:56.193Z,6.63
2023-03-17T21:36:22.848Z,6.60
2023-03-17T21:38:52.004Z,6.10
2023-03-17T21:41:21.592Z,6.40
2023-03-17T21:43:49.014Z,5.73
2023-03-17T21:46:17.253Z,5.95
2023-03-17T21:48:44.157Z,5.28
2023-03-17T21:51:11.549Z,5.38
2023-03-17T21:53:38.414Z,5.20
2023-03-17T21:56:08.920Z,5.20
2023-03-17T21:58:36.237Z,4.65
2023-03-17T22:01:03.075Z,4.65
2023-03-17T22:03:29.857Z,4.68
2023-03-17T22:05:56.706Z,4.35
2023-03-17T22:08:23.568Z,4.07
2023-03-17T22:10:50.162Z,4.45
2023-03-17T22:13:16.944Z,4.20
2023-03-17T22:15:43.508Z,3.88
2023-03-17T22:18:14.721Z,3.80
2023-03-17T22:20:46.262Z,3.40
2023-03-17T22:23:15.306Z,3.80
2023-03-17T22:25:41.873Z,3.60
2023-03-17T22:28:08.677Z,3.20
2023-03-17T22:30:38.636Z,3.88
2023-03-17T22:33:06.590Z,3.40
2023-03-17T22:35:33.900Z,3.38
2023-03-17T22:38:03.191Z,3.40
2023-03-17T22:40:32.799Z,3.15
2023-03-17T22:42:59.895Z,2.70
2023-03-17T22:45:27.317Z,2.60
2023-03-17T22:47:54.378Z,2.58
2023-03-17T22:50:21.295Z,2.80
2023-03-17T22:52:48.407Z,2.38
2023-03-17T22:55:17.787Z,2.40
2023-03-17T22:57:46.926Z,2.10
2023-03-17T23:00:17.268Z,2.20
2023-03-17T23:02:45.256Z,2.03
2023-03-17T23:05:12.198Z,1.85
2023-03-17T23:07:50.240Z,2.22
2023-03-17T23:10:23.072Z,1.80
2023-03-17T23:12:52.530Z,2.20
2023-03-17T23:15:20.051Z,2.05
2023-03-17T23:17:49.186Z,1.63
2023-03-17T23:20:19.030Z,1.67
2023-03-17T23:22:45.600Z,1.47
2023-03-17T23:25:15.535Z,1.77
2023-03-17T23:27:44.762Z,1.88
2023-03-17T23:30:14.728Z,1.50
2023-03-17T23:32:45.035Z,1.10
2023-03-17T23:35:13.522Z,1.57
2023-03-17T23:37:41.221Z,1.50
2023-03-17T23:40:09.428Z,1.63
2023-03-17T23:42:38.613Z,1.90
2023-03-17T23:45:05.807Z,2.03
2023-03-17T23:47:32.365Z,1.57
2023-03-17T23:50:02.186Z,1.25
2023-03-17T23:52:28.917Z,1.40
2023-03-17T23:54:55.529Z,1.60
2023-03-17T23:57:22.893Z,1.80
2023-03-17T23:59:49.643Z,1.47
